N17AC LOWI-EHAM
Flight info
| Callsign | N17AC |
|---|---|
| Flight time | 1h 23m |
| Altitude | 43000 |
| Route | KOGO4H KOGOL KUNOD TEDGO HAREM LOHRE EBIPA MAPOX NORKU NORK2A |
| Aircraft | C700/L-DGV/S |
Departure
| Time | 2026-05-07 14:50 |
|---|---|
| Airport | Innsbruck Airport (LOWI) |
Arrival
| Time | 2026-05-07 16:13 |
|---|---|
| Airport | Amsterdam Airport Schiphol (EHAM) |
| Time | Latitude | Longitude | Altitude | Speed | Heading |
|---|---|---|---|---|---|
| 2026-05-07 14:36 | 47.25802 | 11.34731 | 1895 ft | 0 kts | 306° |
| 2026-05-07 14:45 | 47.25803 | 11.34730 | 1895 ft | 0 kts | 316° |
| 2026-05-07 14:45 | 47.25810 | 11.34730 | 1887 ft | 4 kts | 355° |
| 2026-05-07 14:45 | 47.25834 | 11.34697 | 1895 ft | 6 kts | 281° |
| 2026-05-07 14:46 | 47.25830 | 11.34620 | 1895 ft | 9 kts | 263° |
| 2026-05-07 14:46 | 47.25819 | 11.34512 | 1892 ft | 12 kts | 262° |
| 2026-05-07 14:46 | 47.25805 | 11.34375 | 1889 ft | 15 kts | 262° |
| 2026-05-07 14:46 | 47.25789 | 11.34216 | 1895 ft | 16 kts | 261° |
| 2026-05-07 14:47 | 47.25778 | 11.34118 | 1886 ft | 8 kts | 260° |
| 2026-05-07 14:47 | 47.25771 | 11.34034 | 1897 ft | 8 kts | 269° |
| 2026-05-07 14:47 | 47.25776 | 11.33975 | 1901 ft | 4 kts | 283° |
| 2026-05-07 14:47 | 47.25778 | 11.33963 | 1902 ft | 0 kts | 285° |
| 2026-05-07 14:48 | 47.25779 | 11.33959 | 1897 ft | 3 kts | 286° |
| 2026-05-07 14:48 | 47.25782 | 11.33950 | 1900 ft | 0 kts | 290° |
| 2026-05-07 14:48 | 47.25782 | 11.33948 | 1897 ft | 1 kts | 291° |
| 2026-05-07 14:48 | 47.25793 | 11.33916 | 1905 ft | 7 kts | 299° |
| 2026-05-07 14:49 | 47.25839 | 11.33821 | 1909 ft | 13 kts | 305° |
| 2026-05-07 14:49 | 47.25892 | 11.33714 | 1908 ft | 12 kts | 311° |
| 2026-05-07 14:49 | 47.25945 | 11.33728 | 1901 ft | 11 kts | 63° |
| 2026-05-07 14:49 | 47.25961 | 11.33852 | 1909 ft | 19 kts | 80° |
| 2026-05-07 14:50 | 47.26030 | 11.34490 | 1903 ft | 111 kts | 81° |
| 2026-05-07 14:50 | 47.26187 | 11.35952 | 2226 ft | 169 kts | 81° |
| 2026-05-07 14:50 | 47.26387 | 11.37830 | 3036 ft | 200 kts | 80° |
| 2026-05-07 14:50 | 47.26647 | 11.40064 | 3398 ft | 231 kts | 79° |
| 2026-05-07 14:51 | 47.26912 | 11.42344 | 3755 ft | 229 kts | 79° |
| 2026-05-07 14:51 | 47.27199 | 11.44796 | 4157 ft | 247 kts | 80° |
| 2026-05-07 14:51 | 47.27485 | 11.47261 | 4543 ft | 243 kts | 81° |
| 2026-05-07 14:51 | 47.27946 | 11.49655 | 4914 ft | 247 kts | 66° |
| 2026-05-07 14:52 | 47.28762 | 11.51888 | 5401 ft | 249 kts | 61° |
| 2026-05-07 14:52 | 47.29625 | 11.54232 | 5977 ft | 268 kts | 63° |
| 2026-05-07 14:52 | 47.30412 | 11.56735 | 6515 ft | 270 kts | 65° |
| 2026-05-07 14:52 | 47.31185 | 11.59295 | 7043 ft | 277 kts | 65° |
| 2026-05-07 14:53 | 47.32005 | 11.61893 | 7574 ft | 282 kts | 64° |
| 2026-05-07 14:53 | 47.32828 | 11.64534 | 8110 ft | 285 kts | 65° |
| 2026-05-07 14:53 | 47.33643 | 11.67186 | 9062 ft | 287 kts | 65° |
| 2026-05-07 14:53 | 47.34485 | 11.69920 | 10482 ft | 305 kts | 65° |
| 2026-05-07 14:54 | 47.35405 | 11.72893 | 11553 ft | 333 kts | 65° |
| 2026-05-07 14:54 | 47.36404 | 11.76127 | 12624 ft | 361 kts | 65° |
| 2026-05-07 14:54 | 47.37791 | 11.79346 | 13664 ft | 383 kts | 44° |
| 2026-05-07 14:54 | 47.40042 | 11.81412 | 15150 ft | 385 kts | 20° |
| 2026-05-07 14:55 | 47.42659 | 11.82223 | 16543 ft | 389 kts | 359° |
| 2026-05-07 14:55 | 47.45326 | 11.81605 | 17887 ft | 391 kts | 338° |
| 2026-05-07 14:55 | 47.47679 | 11.79610 | 19007 ft | 394 kts | 318° |
| 2026-05-07 14:55 | 47.49401 | 11.76482 | 20000 ft | 396 kts | 299° |
| 2026-05-07 14:56 | 47.50701 | 11.72860 | 20895 ft | 401 kts | 296° |
| 2026-05-07 14:56 | 47.51924 | 11.69118 | 21787 ft | 406 kts | 293° |
| 2026-05-07 14:56 | 47.52804 | 11.65128 | 22673 ft | 410 kts | 284° |
| 2026-05-07 14:56 | 47.53378 | 11.60946 | 23516 ft | 416 kts | 281° |
| 2026-05-07 14:57 | 47.53902 | 11.56713 | 24212 ft | 421 kts | 281° |
| 2026-05-07 14:57 | 47.54600 | 11.52483 | 24918 ft | 426 kts | 285° |
| 2026-05-07 14:57 | 47.55457 | 11.48257 | 25593 ft | 431 kts | 286° |
| 2026-05-07 14:57 | 47.56234 | 11.44007 | 26258 ft | 435 kts | 283° |
| 2026-05-07 14:58 | 47.56932 | 11.39623 | 26901 ft | 440 kts | 283° |
| 2026-05-07 14:58 | 47.57674 | 11.35197 | 27545 ft | 445 kts | 284° |
| 2026-05-07 14:58 | 47.58480 | 11.30740 | 28177 ft | 449 kts | 284° |
| 2026-05-07 14:58 | 47.59274 | 11.26237 | 28771 ft | 454 kts | 283° |
| 2026-05-07 14:59 | 47.60044 | 11.21662 | 29384 ft | 458 kts | 283° |
| 2026-05-07 14:59 | 47.60811 | 11.17130 | 29978 ft | 462 kts | 284° |
| 2026-05-07 14:59 | 47.61601 | 11.12572 | 30485 ft | 466 kts | 284° |
| 2026-05-07 14:59 | 47.62407 | 11.07894 | 30998 ft | 469 kts | 283° |
| 2026-05-07 15:00 | 47.63203 | 11.03193 | 31534 ft | 472 kts | 283° |
| 2026-05-07 15:00 | 47.64004 | 10.98451 | 32028 ft | 475 kts | 283° |
| 2026-05-07 15:00 | 47.64814 | 10.93690 | 32349 ft | 478 kts | 283° |
| 2026-05-07 15:00 | 47.65623 | 10.88913 | 32417 ft | 474 kts | 283° |
| 2026-05-07 15:01 | 47.67211 | 10.79461 | 32457 ft | 474 kts | 283° |
| 2026-05-07 15:01 | 47.68803 | 10.69953 | 32455 ft | 474 kts | 283° |
| 2026-05-07 15:02 | 47.70375 | 10.60504 | 32461 ft | 474 kts | 283° |
| 2026-05-07 15:02 | 47.71947 | 10.51008 | 32460 ft | 473 kts | 283° |
| 2026-05-07 15:03 | 47.73735 | 10.41715 | 32852 ft | 464 kts | 291° |
| 2026-05-07 15:03 | 47.75106 | 10.37428 | 33815 ft | 459 kts | 297° |
| 2026-05-07 15:03 | 47.76870 | 10.33455 | 34415 ft | 461 kts | 305° |
| 2026-05-07 15:04 | 47.78980 | 10.29858 | 34971 ft | 464 kts | 312° |
| 2026-05-07 15:04 | 47.81406 | 10.26677 | 35521 ft | 466 kts | 318° |
| 2026-05-07 15:04 | 47.83928 | 10.23619 | 36052 ft | 467 kts | 317° |
| 2026-05-07 15:04 | 47.86443 | 10.20533 | 36565 ft | 468 kts | 317° |
| 2026-05-07 15:05 | 47.88955 | 10.17455 | 37065 ft | 468 kts | 317° |
| 2026-05-07 15:05 | 47.91477 | 10.14377 | 37561 ft | 469 kts | 317° |
| 2026-05-07 15:05 | 47.94002 | 10.11287 | 38026 ft | 469 kts | 317° |
| 2026-05-07 15:05 | 47.96524 | 10.08187 | 38484 ft | 470 kts | 317° |
| 2026-05-07 15:06 | 47.99020 | 10.05117 | 38871 ft | 471 kts | 317° |
| 2026-05-07 15:06 | 48.01548 | 10.02009 | 39228 ft | 471 kts | 317° |
| 2026-05-07 15:06 | 48.04080 | 9.98892 | 39578 ft | 471 kts | 317° |
| 2026-05-07 15:06 | 48.06609 | 9.95771 | 39917 ft | 471 kts | 317° |
| 2026-05-07 15:07 | 48.09134 | 9.92649 | 40245 ft | 471 kts | 317° |
| 2026-05-07 15:07 | 48.11665 | 9.89521 | 40561 ft | 471 kts | 317° |
| 2026-05-07 15:07 | 48.14196 | 9.86388 | 40860 ft | 472 kts | 317° |
| 2026-05-07 15:07 | 48.16721 | 9.83254 | 41158 ft | 472 kts | 317° |
| 2026-05-07 15:08 | 48.19251 | 9.80111 | 41449 ft | 472 kts | 317° |
| 2026-05-07 15:08 | 48.21778 | 9.76969 | 41758 ft | 472 kts | 317° |
| 2026-05-07 15:08 | 48.24307 | 9.73822 | 42033 ft | 472 kts | 317° |
| 2026-05-07 15:08 | 48.26833 | 9.70672 | 42295 ft | 472 kts | 317° |
| 2026-05-07 15:09 | 48.29366 | 9.67510 | 42544 ft | 473 kts | 317° |
| 2026-05-07 15:09 | 48.31895 | 9.64348 | 42790 ft | 473 kts | 317° |
| 2026-05-07 15:09 | 48.34424 | 9.61182 | 43015 ft | 474 kts | 317° |
| 2026-05-07 15:09 | 48.36961 | 9.57963 | 43018 ft | 478 kts | 316° |
| 2026-05-07 15:10 | 48.41996 | 9.51468 | 43013 ft | 474 kts | 317° |
| 2026-05-07 15:10 | 48.46974 | 9.45112 | 43015 ft | 471 kts | 316° |
| 2026-05-07 15:11 | 48.51976 | 9.38657 | 43020 ft | 475 kts | 316° |
| 2026-05-07 15:11 | 48.57215 | 9.32457 | 43026 ft | 481 kts | 326° |
| 2026-05-07 15:12 | 48.63341 | 9.28466 | 43023 ft | 485 kts | 342° |
| 2026-05-07 15:12 | 48.70055 | 9.27261 | 43027 ft | 489 kts | 359° |
| 2026-05-07 15:13 | 48.76868 | 9.28223 | 43032 ft | 493 kts | 3° |
| 2026-05-07 15:13 | 48.83718 | 9.29259 | 43036 ft | 496 kts | 4° |
| 2026-05-07 15:14 | 48.90551 | 9.30321 | 43044 ft | 495 kts | 4° |
| 2026-05-07 15:14 | 48.97402 | 9.31370 | 43042 ft | 493 kts | 4° |
| 2026-05-07 15:15 | 49.04240 | 9.32433 | 43050 ft | 492 kts | 4° |
| 2026-05-07 15:15 | 49.11049 | 9.33485 | 43052 ft | 491 kts | 4° |
| 2026-05-07 15:16 | 49.17807 | 9.34537 | 43056 ft | 493 kts | 4° |
| 2026-05-07 15:16 | 49.24666 | 9.35606 | 43059 ft | 496 kts | 4° |
| 2026-05-07 15:17 | 49.31542 | 9.36682 | 43051 ft | 495 kts | 4° |
| 2026-05-07 15:17 | 49.38377 | 9.37754 | 43059 ft | 492 kts | 4° |
| 2026-05-07 15:18 | 49.45181 | 9.38823 | 43061 ft | 492 kts | 4° |
| 2026-05-07 15:18 | 49.52010 | 9.39900 | 43062 ft | 494 kts | 4° |
| 2026-05-07 15:19 | 49.58870 | 9.40984 | 43062 ft | 496 kts | 4° |
| 2026-05-07 15:19 | 49.65747 | 9.42076 | 43066 ft | 496 kts | 4° |
| 2026-05-07 15:20 | 49.72603 | 9.43167 | 43062 ft | 494 kts | 4° |
| 2026-05-07 15:20 | 49.79434 | 9.44257 | 43065 ft | 492 kts | 4° |
| 2026-05-07 15:21 | 49.86211 | 9.45340 | 43066 ft | 493 kts | 4° |
| 2026-05-07 15:21 | 49.93051 | 9.46441 | 43060 ft | 495 kts | 4° |
| 2026-05-07 15:22 | 49.99933 | 9.47547 | 43063 ft | 497 kts | 4° |
| 2026-05-07 15:22 | 50.05644 | 9.48468 | 43062 ft | 495 kts | 4° |
| 2026-05-07 15:23 | 50.13595 | 9.49391 | 43063 ft | 491 kts | 2° |
| 2026-05-07 15:23 | 50.19273 | 9.50054 | 43060 ft | 492 kts | 2° |
| 2026-05-07 15:24 | 50.26140 | 9.50809 | 43062 ft | 494 kts | 2° |
| 2026-05-07 15:24 | 50.33025 | 9.51477 | 43057 ft | 495 kts | 357° |
| 2026-05-07 15:25 | 50.39757 | 9.49705 | 43058 ft | 489 kts | 340° |
| 2026-05-07 15:25 | 50.45773 | 9.45107 | 43061 ft | 482 kts | 327° |
| 2026-05-07 15:26 | 50.51553 | 9.39745 | 43062 ft | 480 kts | 327° |
| 2026-05-07 15:26 | 50.57324 | 9.34369 | 43066 ft | 483 kts | 327° |
| 2026-05-07 15:27 | 50.63117 | 9.28963 | 43066 ft | 486 kts | 327° |
| 2026-05-07 15:27 | 50.68913 | 9.23538 | 43066 ft | 484 kts | 327° |
| 2026-05-07 15:28 | 50.74682 | 9.18119 | 43065 ft | 481 kts | 327° |
| 2026-05-07 15:28 | 50.80435 | 9.12702 | 43067 ft | 482 kts | 327° |
| 2026-05-07 15:29 | 50.86208 | 9.07250 | 43063 ft | 485 kts | 327° |
| 2026-05-07 15:29 | 50.91975 | 9.01788 | 43068 ft | 485 kts | 327° |
| 2026-05-07 15:30 | 50.97758 | 8.96295 | 43068 ft | 483 kts | 327° |
| 2026-05-07 15:30 | 51.03511 | 8.90814 | 43065 ft | 481 kts | 327° |
| 2026-05-07 15:31 | 51.09241 | 8.85338 | 43070 ft | 481 kts | 327° |
| 2026-05-07 15:31 | 51.14663 | 8.79227 | 43067 ft | 480 kts | 314° |
| 2026-05-07 15:32 | 51.19326 | 8.71593 | 43071 ft | 481 kts | 312° |
| 2026-05-07 15:32 | 51.23993 | 8.63939 | 43076 ft | 480 kts | 312° |
| 2026-05-07 15:33 | 51.28628 | 8.56272 | 43075 ft | 478 kts | 312° |
| 2026-05-07 15:33 | 51.33235 | 8.48652 | 43081 ft | 476 kts | 312° |
| 2026-05-07 15:34 | 51.37797 | 8.41067 | 43083 ft | 477 kts | 312° |
| 2026-05-07 15:34 | 51.42417 | 8.33373 | 43087 ft | 480 kts | 312° |
| 2026-05-07 15:35 | 51.47053 | 8.25623 | 43081 ft | 482 kts | 312° |
| 2026-05-07 15:35 | 51.51676 | 8.17873 | 43083 ft | 479 kts | 311° |
| 2026-05-07 15:36 | 51.56265 | 8.10153 | 43082 ft | 476 kts | 311° |
| 2026-05-07 15:36 | 51.60842 | 8.02430 | 43083 ft | 478 kts | 311° |
| 2026-05-07 15:37 | 51.65437 | 7.94653 | 43086 ft | 480 kts | 311° |
| 2026-05-07 15:37 | 51.70036 | 7.86844 | 42447 ft | 488 kts | 311° |
| 2026-05-07 15:38 | 51.72363 | 7.82885 | 41807 ft | 484 kts | 311° |
| 2026-05-07 15:38 | 51.74645 | 7.78999 | 41179 ft | 474 kts | 311° |
| 2026-05-07 15:38 | 51.76891 | 7.75165 | 40561 ft | 465 kts | 311° |
| 2026-05-07 15:38 | 51.79092 | 7.71398 | 39955 ft | 456 kts | 311° |
| 2026-05-07 15:39 | 51.81249 | 7.67703 | 39359 ft | 449 kts | 311° |
| 2026-05-07 15:39 | 51.83377 | 7.64055 | 38773 ft | 442 kts | 311° |
| 2026-05-07 15:39 | 51.85466 | 7.60467 | 38137 ft | 433 kts | 311° |
| 2026-05-07 15:39 | 51.87511 | 7.56949 | 37569 ft | 424 kts | 311° |
| 2026-05-07 15:40 | 51.89531 | 7.53467 | 37014 ft | 429 kts | 312° |
| 2026-05-07 15:40 | 51.91632 | 7.49838 | 36435 ft | 452 kts | 312° |
| 2026-05-07 15:40 | 51.93811 | 7.46077 | 35832 ft | 457 kts | 312° |
| 2026-05-07 15:40 | 51.95973 | 7.42344 | 35205 ft | 451 kts | 312° |
| 2026-05-07 15:41 | 51.98062 | 7.38631 | 34544 ft | 441 kts | 307° |
| 2026-05-07 15:41 | 51.99626 | 7.34505 | 33857 ft | 432 kts | 296° |
| 2026-05-07 15:41 | 52.00849 | 7.30004 | 33091 ft | 446 kts | 291° |
| 2026-05-07 15:41 | 52.02027 | 7.25188 | 32360 ft | 469 kts | 291° |
| 2026-05-07 15:42 | 52.03348 | 7.20323 | 31649 ft | 469 kts | 295° |
| 2026-05-07 15:42 | 52.04866 | 7.15663 | 30948 ft | 463 kts | 298° |
| 2026-05-07 15:42 | 52.06367 | 7.11074 | 30262 ft | 457 kts | 296° |
| 2026-05-07 15:42 | 52.07713 | 7.06425 | 29481 ft | 452 kts | 294° |
| 2026-05-07 15:43 | 52.09022 | 7.01792 | 28696 ft | 451 kts | 294° |
| 2026-05-07 15:43 | 52.10422 | 6.97172 | 27934 ft | 457 kts | 296° |
| 2026-05-07 15:43 | 52.11847 | 6.92560 | 27204 ft | 454 kts | 295° |
| 2026-05-07 15:43 | 52.13178 | 6.88056 | 27067 ft | 441 kts | 294° |
| 2026-05-07 15:44 | 52.14512 | 6.83473 | 26918 ft | 456 kts | 294° |
| 2026-05-07 15:44 | 52.15890 | 6.78838 | 26392 ft | 449 kts | 295° |
| 2026-05-07 15:44 | 52.17249 | 6.74316 | 25849 ft | 438 kts | 295° |
| 2026-05-07 15:44 | 52.18564 | 6.69863 | 25326 ft | 435 kts | 294° |
| 2026-05-07 15:45 | 52.19861 | 6.65423 | 24812 ft | 435 kts | 294° |
| 2026-05-07 15:45 | 52.21169 | 6.60986 | 24308 ft | 432 kts | 294° |
| 2026-05-07 15:45 | 52.22470 | 6.56579 | 23814 ft | 429 kts | 294° |
| 2026-05-07 15:45 | 52.23753 | 6.52202 | 23267 ft | 426 kts | 294° |
| 2026-05-07 15:46 | 52.26286 | 6.43533 | 22123 ft | 420 kts | 295° |
| 2026-05-07 15:46 | 52.27540 | 6.39239 | 21560 ft | 417 kts | 295° |
| 2026-05-07 15:46 | 52.28781 | 6.34983 | 21016 ft | 414 kts | 295° |
| 2026-05-07 15:47 | 52.29990 | 6.30817 | 20486 ft | 410 kts | 295° |
| 2026-05-07 15:47 | 52.31206 | 6.26624 | 19961 ft | 407 kts | 295° |
| 2026-05-07 15:47 | 52.32417 | 6.22447 | 19444 ft | 404 kts | 295° |
| 2026-05-07 15:47 | 52.33614 | 6.18311 | 18934 ft | 401 kts | 295° |
| 2026-05-07 15:48 | 52.34802 | 6.14193 | 18438 ft | 399 kts | 295° |
| 2026-05-07 15:48 | 52.35980 | 6.10102 | 17878 ft | 396 kts | 295° |
| 2026-05-07 15:48 | 52.37148 | 6.06045 | 17312 ft | 392 kts | 295° |
| 2026-05-07 15:48 | 52.38292 | 6.02062 | 16772 ft | 390 kts | 294° |
| 2026-05-07 15:49 | 52.39437 | 5.98062 | 16227 ft | 387 kts | 294° |
| 2026-05-07 15:49 | 52.40576 | 5.94087 | 15698 ft | 384 kts | 294° |
| 2026-05-07 15:49 | 52.41706 | 5.90137 | 15170 ft | 381 kts | 294° |
| 2026-05-07 15:49 | 52.42806 | 5.86275 | 14664 ft | 378 kts | 294° |
| 2026-05-07 15:50 | 52.43914 | 5.82378 | 14158 ft | 376 kts | 294° |
| 2026-05-07 15:50 | 52.45020 | 5.78499 | 13629 ft | 374 kts | 294° |
| 2026-05-07 15:50 | 52.46111 | 5.74654 | 13068 ft | 370 kts | 294° |
| 2026-05-07 15:50 | 52.47189 | 5.70840 | 12520 ft | 366 kts | 294° |
| 2026-05-07 15:51 | 52.48260 | 5.67062 | 11972 ft | 363 kts | 294° |
| 2026-05-07 15:51 | 52.49279 | 5.63299 | 11436 ft | 359 kts | 290° |
| 2026-05-07 15:51 | 52.49860 | 5.59349 | 10899 ft | 355 kts | 278° |
| 2026-05-07 15:51 | 52.50006 | 5.55334 | 10374 ft | 351 kts | 267° |
| 2026-05-07 15:52 | 52.49493 | 5.51488 | 9836 ft | 337 kts | 251° |
| 2026-05-07 15:52 | 52.48614 | 5.48039 | 9265 ft | 319 kts | 246° |
| 2026-05-07 15:52 | 52.47747 | 5.44818 | 8701 ft | 306 kts | 247° |
| 2026-05-07 15:52 | 52.47014 | 5.41607 | 8153 ft | 296 kts | 251° |
| 2026-05-07 15:53 | 52.46421 | 5.38411 | 7608 ft | 288 kts | 252° |
| 2026-05-07 15:53 | 52.45814 | 5.35311 | 7117 ft | 282 kts | 250° |
| 2026-05-07 15:53 | 52.45193 | 5.32389 | 7072 ft | 263 kts | 250° |
| 2026-05-07 15:53 | 52.44603 | 5.29559 | 7075 ft | 264 kts | 250° |
| 2026-05-07 15:54 | 52.44014 | 5.26663 | 7070 ft | 269 kts | 250° |
| 2026-05-07 15:54 | 52.43419 | 5.23789 | 7069 ft | 270 kts | 250° |
| 2026-05-07 15:54 | 52.42817 | 5.20884 | 7071 ft | 270 kts | 250° |
| 2026-05-07 15:54 | 52.42215 | 5.17973 | 7069 ft | 269 kts | 250° |
| 2026-05-07 15:55 | 52.41611 | 5.15055 | 7068 ft | 269 kts | 250° |
| 2026-05-07 15:55 | 52.41017 | 5.12197 | 7068 ft | 268 kts | 250° |
| 2026-05-07 15:55 | 52.40417 | 5.09313 | 7069 ft | 268 kts | 250° |
| 2026-05-07 15:55 | 52.39815 | 5.06418 | 7070 ft | 267 kts | 250° |
| 2026-05-07 15:56 | 52.39270 | 5.03518 | 7068 ft | 267 kts | 255° |
| 2026-05-07 15:56 | 52.38876 | 5.00549 | 7072 ft | 267 kts | 257° |
| 2026-05-07 15:56 | 52.38503 | 4.97558 | 7078 ft | 268 kts | 257° |
| 2026-05-07 15:56 | 52.38136 | 4.94555 | 7077 ft | 269 kts | 257° |
| 2026-05-07 15:57 | 52.37772 | 4.91548 | 7081 ft | 269 kts | 257° |
| 2026-05-07 15:57 | 52.37406 | 4.88540 | 7081 ft | 269 kts | 257° |
| 2026-05-07 15:57 | 52.37044 | 4.85542 | 7082 ft | 268 kts | 257° |
| 2026-05-07 15:57 | 52.36687 | 4.82590 | 7087 ft | 267 kts | 257° |
| 2026-05-07 15:58 | 52.36326 | 4.79611 | 7081 ft | 267 kts | 257° |
| 2026-05-07 15:58 | 52.35965 | 4.76620 | 7081 ft | 268 kts | 257° |
| 2026-05-07 15:58 | 52.35601 | 4.73628 | 7084 ft | 267 kts | 257° |
| 2026-05-07 15:58 | 52.35240 | 4.70647 | 7084 ft | 267 kts | 257° |
| 2026-05-07 15:59 | 52.34881 | 4.67659 | 7084 ft | 267 kts | 257° |
| 2026-05-07 15:59 | 52.34523 | 4.64671 | 7084 ft | 268 kts | 257° |
| 2026-05-07 15:59 | 52.34163 | 4.61676 | 7081 ft | 269 kts | 257° |
| 2026-05-07 15:59 | 52.33808 | 4.58679 | 7085 ft | 269 kts | 257° |
| 2026-05-07 16:00 | 52.33451 | 4.55662 | 6912 ft | 272 kts | 257° |
| 2026-05-07 16:00 | 52.33093 | 4.52641 | 6668 ft | 269 kts | 257° |
| 2026-05-07 16:00 | 52.32624 | 4.49758 | 6410 ft | 264 kts | 243° |
| 2026-05-07 16:00 | 52.31435 | 4.47564 | 6120 ft | 258 kts | 211° |
| 2026-05-07 16:01 | 52.29743 | 4.46688 | 5847 ft | 257 kts | 186° |
| 2026-05-07 16:01 | 52.27955 | 4.46537 | 5590 ft | 259 kts | 181° |
| 2026-05-07 16:01 | 52.26151 | 4.46478 | 5332 ft | 260 kts | 180° |
| 2026-05-07 16:01 | 52.24340 | 4.46442 | 5079 ft | 261 kts | 180° |
| 2026-05-07 16:02 | 52.22529 | 4.46409 | 4823 ft | 260 kts | 180° |
| 2026-05-07 16:02 | 52.20746 | 4.46377 | 4562 ft | 250 kts | 180° |
| 2026-05-07 16:02 | 52.19033 | 4.46339 | 4296 ft | 242 kts | 180° |
| 2026-05-07 16:02 | 52.17373 | 4.46299 | 4078 ft | 233 kts | 180° |
| 2026-05-07 16:03 | 52.15801 | 4.46288 | 4069 ft | 218 kts | 176° |
| 2026-05-07 16:03 | 52.14325 | 4.46729 | 3786 ft | 216 kts | 154° |
| 2026-05-07 16:03 | 52.13268 | 4.48393 | 3503 ft | 214 kts | 116° |
| 2026-05-07 16:03 | 52.13074 | 4.50740 | 3231 ft | 212 kts | 78° |
| 2026-05-07 16:04 | 52.13806 | 4.52771 | 2962 ft | 212 kts | 41° |
| 2026-05-07 16:04 | 52.15051 | 4.53987 | 2700 ft | 211 kts | 29° |
| 2026-05-07 16:04 | 52.16285 | 4.55322 | 2449 ft | 211 kts | 33° |
| 2026-05-07 16:04 | 52.17629 | 4.56137 | 2177 ft | 210 kts | 6° |
| 2026-05-07 16:05 | 52.19031 | 4.55586 | 1904 ft | 213 kts | 328° |
| 2026-05-07 16:05 | 52.19904 | 4.53702 | 1853 ft | 207 kts | 288° |
| 2026-05-07 16:05 | 52.19812 | 4.51500 | 1983 ft | 194 kts | 246° |
| 2026-05-07 16:05 | 52.18883 | 4.50006 | 1989 ft | 191 kts | 201° |
| 2026-05-07 16:06 | 52.17601 | 4.49927 | 1988 ft | 184 kts | 157° |
| 2026-05-07 16:06 | 52.16695 | 4.51243 | 1992 ft | 175 kts | 111° |
| 2026-05-07 16:06 | 52.16473 | 4.53194 | 1991 ft | 177 kts | 92° |
| 2026-05-07 16:06 | 52.16355 | 4.55208 | 2004 ft | 180 kts | 94° |
| 2026-05-07 16:07 | 52.16234 | 4.57225 | 2000 ft | 178 kts | 93° |
| 2026-05-07 16:07 | 52.16264 | 4.59216 | 2001 ft | 176 kts | 78° |
| 2026-05-07 16:07 | 52.16523 | 4.61161 | 2001 ft | 176 kts | 76° |
| 2026-05-07 16:07 | 52.16775 | 4.63114 | 1994 ft | 177 kts | 76° |
| 2026-05-07 16:08 | 52.17020 | 4.65061 | 2004 ft | 175 kts | 76° |
| 2026-05-07 16:08 | 52.17261 | 4.66983 | 2007 ft | 177 kts | 77° |
| 2026-05-07 16:08 | 52.17515 | 4.68954 | 2009 ft | 177 kts | 76° |
| 2026-05-07 16:08 | 52.17764 | 4.70895 | 2009 ft | 174 kts | 76° |
| 2026-05-07 16:09 | 52.18007 | 4.72857 | 1993 ft | 178 kts | 76° |
| 2026-05-07 16:09 | 52.18284 | 4.74809 | 1993 ft | 175 kts | 66° |
| 2026-05-07 16:09 | 52.18910 | 4.76503 | 1937 ft | 177 kts | 53° |
| 2026-05-07 16:09 | 52.19609 | 4.78167 | 1796 ft | 179 kts | 54° |
| 2026-05-07 16:10 | 52.20303 | 4.79845 | 1645 ft | 178 kts | 51° |
| 2026-05-07 16:10 | 52.21202 | 4.81219 | 1484 ft | 177 kts | 36° |
| 2026-05-07 16:10 | 52.22325 | 4.81954 | 1316 ft | 177 kts | 3° |
| 2026-05-07 16:10 | 52.23481 | 4.81685 | 1140 ft | 163 kts | 340° |
| 2026-05-07 16:11 | 52.24459 | 4.80744 | 1001 ft | 164 kts | 328° |
| 2026-05-07 16:11 | 52.25397 | 4.79715 | 1131 ft | 162 kts | 324° |
| 2026-05-07 16:11 | 52.26181 | 4.78560 | 986 ft | 148 kts | 316° |
| 2026-05-07 16:11 | 52.26864 | 4.77259 | 909 ft | 149 kts | 310° |
| 2026-05-07 16:12 | 52.27280 | 4.76370 | 836 ft | 148 kts | 313° |
| 2026-05-07 16:12 | 52.28022 | 4.75581 | 849 ft | 128 kts | 360° |
| 2026-05-07 16:12 | 52.28797 | 4.76263 | 767 ft | 127 kts | 46° |
| 2026-05-07 16:12 | 52.29379 | 4.77329 | 366 ft | 125 kts | 44° |
| 2026-05-07 16:13 | 52.29974 | 4.78245 | 101 ft | 114 kts | 42° |
| 2026-05-07 16:13 | 52.30518 | 4.79033 | -13 ft | 94 kts | 42° |
| 2026-05-07 16:13 | 52.30904 | 4.79586 | -14 ft | 49 kts | 41° |
| 2026-05-07 16:13 | 52.31143 | 4.79931 | -13 ft | 27 kts | 42° |
| 2026-05-07 16:14 | 52.31140 | 4.80083 | -12 ft | 17 kts | 125° |
| 2026-05-07 16:14 | 52.31051 | 4.80249 | -12 ft | 22 kts | 131° |
| 2026-05-07 16:14 | 52.30966 | 4.80432 | -12 ft | 16 kts | 97° |
| 2026-05-07 16:14 | 52.31036 | 4.80579 | -12 ft | 19 kts | 41° |
| 2026-05-07 16:15 | 52.31105 | 4.80689 | -12 ft | 5 kts | 68° |
| 2026-05-07 16:15 | 52.31100 | 4.80768 | -12 ft | 9 kts | 104° |
| 2026-05-07 16:15 | 52.31081 | 4.80764 | -12 ft | 3 kts | 293° |